Time;durP1;ratioP1;P1;durP2;ratioP2;P2;SDS_P1;SDS_P2;PMS_P1;PMS_P2;Temp;Humidity;BMP_temperature;BMP_pressure;BME280_temperature;BME280_humidity;BME280_pressure;Samples;Min_cycle;Max_cycle;Signal;HPM_P1;HPM_P2
2021/05/23 19:54:23;;;;;;;5.97;2.40;;;13.10;99.90;;;;;;5095435;27;20280;-67
2021/05/23 19:56:49;;;;;;;5.03;2.73;;;13.10;99.90;;;;;;5095730;28;20664;-68
2021/05/23 19:59:16;;;;;;;3.00;2.50;;;13.10;99.90;;;;;;5092683;28;20168;-66
2021/05/23 20:01:43;;;;;;;3.53;2.10;;;13.10;99.90;;;;;;5088831;28;20193;-66
2021/05/23 20:04:09;;;;;;;2.93;1.80;;;13.10;99.90;;;;;;5091072;28;20694;-67
2021/05/23 20:06:34;;;;;;;4.33;2.07;;;13.10;99.90;;;;;;5091053;28;20214;-69
2021/05/23 20:09:00;;;;;;;4.97;2.37;;;13.20;99.90;;;;;;5090462;28;20279;-67
2021/05/23 20:11:26;;;;;;;5.50;2.43;;;13.20;99.90;;;;;;5090160;28;20193;-65
2021/05/23 20:13:51;;;;;;;5.73;2.30;;;13.20;99.90;;;;;;5090080;28;20211;-68
2021/05/23 20:16:17;;;;;;;3.30;2.47;;;13.20;99.90;;;;;;5089832;28;20536;-67
2021/05/23 20:18:43;;;;;;;7.00;3.07;;;13.20;99.90;;;;;;5088646;28;20224;-67
2021/05/23 20:21:09;;;;;;;8.20;3.37;;;13.20;99.90;;;;;;5089776;28;20172;-66
2021/05/23 20:23:35;;;;;;;6.60;3.90;;;13.20;99.90;;;;;;5088447;28;20517;-66
2021/05/23 20:26:00;;;;;;;4.00;2.90;;;13.20;99.90;;;;;;5087548;28;20184;-65
2021/05/23 20:28:26;;;;;;;5.83;3.30;;;13.20;99.90;;;;;;5087228;28;20766;-68
2021/05/23 20:30:52;;;;;;;5.17;3.33;;;13.20;99.90;;;;;;5088005;28;20198;-67
2021/05/23 20:33:19;;;;;;;6.57;3.33;;;13.20;99.90;;;;;;5087853;28;20562;-67
2021/05/23 20:35:46;;;;;;;6.30;3.10;;;13.20;99.90;;;;;;5087933;28;20176;-68
2021/05/23 20:38:11;;;;;;;3.57;2.73;;;13.20;99.90;;;;;;5087342;28;20204;-67
2021/05/23 20:40:37;;;;;;;4.63;3.33;;;13.20;99.90;;;;;;5087944;28;20260;-67
2021/05/23 20:43:03;;;;;;;5.60;3.20;;;13.20;99.90;;;;;;5088057;28;20595;-67
2021/05/23 20:45:29;;;;;;;7.87;3.30;;;13.10;99.90;;;;;;5087308;28;20184;-68
2021/05/23 20:47:54;;;;;;;4.63;2.73;;;13.10;99.90;;;;;;5087668;28;20199;-66
2021/05/23 20:50:21;;;;;;;5.00;3.37;;;13.10;99.90;;;;;;5086999;28;20550;-66
2021/05/23 20:52:46;;;;;;;6.07;3.10;;;13.10;99.90;;;;;;5086662;28;20590;-67
2021/05/23 20:55:13;;;;;;;7.20;3.30;;;13.20;99.90;;;;;;5086589;28;20180;-63
2021/05/23 20:57:40;;;;;;;6.60;3.37;;;13.20;99.90;;;;;;5086611;28;20693;-68
2021/05/23 21:00:09;;;;;;;6.10;3.20;;;13.20;99.90;;;;;;5087536;28;20177;-68
2021/05/23 21:02:34;;;;;;;5.03;3.00;;;13.20;99.90;;;;;;5085501;28;20173;-69
2021/05/23 21:05:00;;;;;;;6.50;3.80;;;13.20;99.90;;;;;;5077481;28;20196;-71
2021/05/23 21:07:26;;;;;;;7.10;3.97;;;13.20;99.90;;;;;;5074081;28;20236;-68
2021/05/23 21:09:52;;;;;;;4.80;3.83;;;13.20;99.90;;;;;;5073759;28;20176;-66
2021/05/23 21:12:17;;;;;;;5.43;3.00;;;13.20;99.90;;;;;;5072335;28;20220;-67
2021/05/23 21:14:43;;;;;;;5.37;3.10;;;13.20;99.90;;;;;;5073404;28;20169;-67
2021/05/23 21:17:09;;;;;;;4.33;2.70;;;13.10;99.90;;;;;;5073867;28;20193;-67
2021/05/23 21:19:35;;;;;;;5.80;3.27;;;13.10;99.90;;;;;;5067840;28;20226;-68
2021/05/23 21:22:00;;;;;;;5.70;2.90;;;13.10;99.90;;;;;;5073455;28;20169;-67
2021/05/23 21:24:27;;;;;;;4.33;2.87;;;13.10;99.90;;;;;;5073595;28;20180;-67
2021/05/23 21:26:53;;;;;;;5.37;2.83;;;13.10;99.90;;;;;;5073805;28;20257;-67
2021/05/23 21:29:18;;;;;;;5.70;3.20;;;13.10;99.90;;;;;;5073184;28;20840;-67
2021/05/23 21:31:47;;;;;;;3.43;2.47;;;13.00;99.90;;;;;;5067919;28;20621;-67
2021/05/23 21:34:14;;;;;;;4.93;2.80;;;12.90;99.90;;;;;;5074158;28;20205;-67
2021/05/23 21:36:40;;;;;;;3.40;3.10;;;12.80;99.90;;;;;;5073472;28;20200;-67
2021/05/23 21:39:05;;;;;;;3.87;2.50;;;12.80;99.90;;;;;;5074024;28;20177;-66
2021/05/23 21:41:31;;;;;;;3.53;2.47;;;12.80;99.90;;;;;;5074362;28;20173;-67
2021/05/23 21:43:56;;;;;;;3.27;2.67;;;12.70;99.90;;;;;;5073504;28;20554;-67
2021/05/23 21:46:22;;;;;;;4.17;2.47;;;12.70;99.90;;;;;;5071907;28;20597;-66
2021/05/23 21:48:47;;;;;;;3.30;2.80;;;12.60;99.90;;;;;;5073015;28;20203;-68
2021/05/23 21:51:13;;;;;;;3.80;3.03;;;12.60;99.90;;;;;;5072741;28;20173;-67
2021/05/23 21:53:39;;;;;;;5.33;3.83;;;12.50;99.90;;;;;;5072016;28;20213;-66
2021/05/23 21:56:05;;;;;;;3.53;3.13;;;12.50;99.90;;;;;;5070870;28;20239;-67
2021/05/23 21:58:31;;;;;;;5.40;3.07;;;12.50;99.90;;;;;;5072768;28;20238;-66
2021/05/23 22:00:56;;;;;;;3.20;2.87;;;12.50;99.90;;;;;;5072587;28;20223;-66
2021/05/23 22:03:26;;;;;;;3.80;3.10;;;12.50;99.90;;;;;;5072601;28;20235;-69
2021/05/23 22:05:52;;;;;;;3.37;3.07;;;12.50;99.90;;;;;;5071076;28;20523;-66
2021/05/23 22:08:17;;;;;;;3.70;3.40;;;12.50;99.90;;;;;;5072142;28;20197;-66
2021/05/23 22:10:43;;;;;;;4.13;3.40;;;12.50;99.90;;;;;;5072256;28;20188;-67
2021/05/23 22:13:09;;;;;;;3.83;2.77;;;12.50;99.90;;;;;;5071854;28;20284;-67
2021/05/23 22:15:34;;;;;;;3.77;3.17;;;12.40;99.90;;;;;;5071674;28;20169;-66
2021/05/23 22:18:00;;;;;;;3.20;2.90;;;12.40;99.90;;;;;;5071971;28;20665;-66
2021/05/23 22:20:26;;;;;;;3.20;2.90;;;12.30;99.90;;;;;;5071381;28;20188;-66
2021/05/23 22:22:52;;;;;;;3.80;3.40;;;12.20;99.90;;;;;;5071958;28;20169;-67
2021/05/23 22:25:18;;;;;;;5.20;3.10;;;12.20;99.90;;;;;;5072280;28;20231;-66
2021/05/23 22:27:44;;;;;;;4.53;3.13;;;12.20;99.90;;;;;;5072262;28;20671;-67
2021/05/23 22:30:12;;;;;;;3.33;3.00;;;12.20;99.90;;;;;;5071467;28;20185;-67
2021/05/23 22:32:38;;;;;;;3.60;2.87;;;12.20;99.90;;;;;;5071396;28;20196;-66
2021/05/23 22:35:12;;;;;;;4.43;3.27;;;12.20;99.90;;;;;;5072313;28;20188;-67
2021/05/23 22:37:38;;;;;;;3.93;3.30;;;12.30;99.90;;;;;;5072159;28;20201;-66
2021/05/23 22:40:07;;;;;;;3.80;3.30;;;12.20;99.90;;;;;;5071921;28;20200;-67
2021/05/23 22:42:33;;;;;;;3.60;3.20;;;12.20;99.90;;;;;;5070813;28;20249;-67
2021/05/23 22:44:59;;;;;;;3.67;2.73;;;12.20;99.90;;;;;;5070556;28;20180;-67
2021/05/23 22:47:24;;;;;;;3.80;3.10;;;12.20;99.90;;;;;;5071781;28;20193;-67
2021/05/23 22:49:50;;;;;;;5.83;3.37;;;12.10;99.90;;;;;;5071117;28;20231;-67
2021/05/23 22:52:16;;;;;;;4.33;3.00;;;12.20;99.90;;;;;;5071788;28;20197;-67
2021/05/23 22:54:41;;;;;;;3.40;3.10;;;12.10;99.90;;;;;;5071859;28;20165;-67
2021/05/23 22:57:07;;;;;;;4.17;3.70;;;12.10;99.90;;;;;;5070773;28;20714;-66
2021/05/23 22:59:34;;;;;;;3.83;3.53;;;12.00;99.90;;;;;;5071879;28;20174;-66
2021/05/23 23:02:00;;;;;;;3.90;3.33;;;12.00;99.90;;;;;;5070399;28;20184;-68
2021/05/23 23:04:33;;;;;;;3.77;3.10;;;11.90;99.90;;;;;;5071328;28;20279;-66
2021/05/23 23:07:00;;;;;;;3.70;3.37;;;11.90;99.90;;;;;;5071684;28;20177;-65
2021/05/23 23:09:25;;;;;;;2.70;2.50;;;11.80;99.90;;;;;;5070879;28;20169;-66
2021/05/23 23:11:51;;;;;;;3.27;2.80;;;11.70;99.90;;;;;;5071330;28;20633;-66
2021/05/23 23:14:17;;;;;;;3.40;3.10;;;11.70;99.90;;;;;;5071474;28;20295;-65
2021/05/23 23:16:42;;;;;;;3.40;3.10;;;11.50;99.90;;;;;;5070317;28;20176;-66
2021/05/23 23:19:08;;;;;;;2.93;2.70;;;11.50;99.90;;;;;;5071019;28;20172;-65
2021/05/23 23:21:35;;;;;;;3.37;2.87;;;11.50;99.90;;;;;;5071203;28;20175;-65
2021/05/23 23:24:02;;;;;;;5.80;3.20;;;11.40;99.90;;;;;;5070373;28;20276;-66
2021/05/23 23:26:27;;;;;;;3.17;2.80;;;11.40;99.90;;;;;;5071124;28;20173;-66
2021/05/23 23:28:53;;;;;;;3.30;2.93;;;11.40;99.90;;;;;;5070808;28;20196;-66
2021/05/23 23:31:18;;;;;;;3.30;3.00;;;11.40;99.90;;;;;;5070839;28;20544;-65
2021/05/23 23:33:44;;;;;;;6.47;3.83;;;11.40;99.90;;;;;;5070073;28;20234;-66
2021/05/23 23:36:10;;;;;;;3.27;2.97;;;11.30;99.90;;;;;;5070515;28;20173;-68
2021/05/23 23:38:37;;;;;;;3.27;2.97;;;11.30;99.90;;;;;;5071263;28;20185;-67
2021/05/23 23:41:03;;;;;;;3.53;3.10;;;11.20;99.90;;;;;;5070687;28;20173;-66
2021/05/23 23:43:29;;;;;;;3.43;3.00;;;11.20;99.90;;;;;;5070135;28;20172;-66
2021/05/23 23:45:55;;;;;;;3.10;2.80;;;11.20;99.90;;;;;;5071074;28;20176;-67
2021/05/23 23:48:20;;;;;;;3.83;3.20;;;11.20;99.90;;;;;;5070652;28;20330;-66
2021/05/23 23:50:46;;;;;;;3.50;3.20;;;11.20;99.90;;;;;;5068631;28;20188;-67
2021/05/23 23:53:12;;;;;;;3.40;3.10;;;11.10;99.90;;;;;;5070790;28;20209;-67
2021/05/23 23:55:38;;;;;;;3.37;3.07;;;11.10;99.90;;;;;;5069508;28;20540;-67
2021/05/23 23:58:04;;;;;;;3.43;2.97;;;11.10;99.90;;;;;;5070720;28;20185;-67
